94TE weather

Barbaro North Heliport
Argyle, Texas, United States

Public forecast

Using degrees Fahrenheit for public forecast. Weather courtesy of forecast.io.

METAR (pilot weather report)

Closest report is Denton Municipal Airport, 6.7 nm (12.4 km) NNW. Retrieved 2019/07/16 02:53 UTC (26 minutes ago):

KDTO 160253Z AUTO 16004KT 10SM CLR 29/21 A2988 RMK AO2 SLP108 T02890206 53009

TAF (pilot weather forecast)

Forecast is more than 12 hours old.

Closest forecast is Fort Worth Alliance Airport, 10.9 nm (20.2 km) SW. Retrieved 2019/07/15 00:30 UTC (1 day ago):

TAF KAFW 152327Z 1600/1624 19006KT P6SM FEW050 FM161500 19015KT P6SM FEW040